createdAt,value
2023-10-13T00:02:07.454Z,292.97
2023-10-13T00:04:39.360Z,382.77
2023-10-13T00:07:11.241Z,333.90
2023-10-13T00:09:43.491Z,9.10
2023-10-13T00:12:15.475Z,4.93
2023-10-13T00:14:47.179Z,288.90
2023-10-13T00:17:25.774Z,289.87
2023-10-13T00:20:01.180Z,391.27
2023-10-13T00:22:32.949Z,369.97
2023-10-13T00:25:05.119Z,282.93
2023-10-13T00:27:42.483Z,326.23
2023-10-13T00:30:23.790Z,421.77
2023-10-13T00:32:58.626Z,389.23
2023-10-13T00:35:37.191Z,471.67
2023-10-13T00:38:14.800Z,345.50
2023-10-13T00:40:53.555Z,421.90
2023-10-13T00:43:25.314Z,456.93
2023-10-13T00:45:58.835Z,465.50
2023-10-13T00:48:34.829Z,482.07
2023-10-13T00:51:08.099Z,264.93
2023-10-13T00:53:41.270Z,263.77
2023-10-13T00:56:28.447Z,117.63
2023-10-13T00:59:03.494Z,255.73
2023-10-13T01:01:37.622Z,487.27
2023-10-13T01:04:13.131Z,601.93
2023-10-13T01:06:47.180Z,556.63
2023-10-13T01:09:19.374Z,500.47
2023-10-13T01:11:55.445Z,451.17
2023-10-13T01:14:30.025Z,359.43
2023-10-13T01:17:02.627Z,324.77
2023-10-13T01:19:44.068Z,423.00
2023-10-13T01:22:16.058Z,299.80
2023-10-13T01:24:47.762Z,289.00
2023-10-13T01:27:21.081Z,340.50
2023-10-13T01:29:59.497Z,365.63
2023-10-13T01:32:31.374Z,335.50
2023-10-13T01:35:07.302Z,266.03
2023-10-13T01:37:39.196Z,268.43
2023-10-13T01:40:12.237Z,223.10
2023-10-13T01:42:46.602Z,212.83
2023-10-13T01:45:21.015Z,212.33
2023-10-13T01:47:52.802Z,211.30
2023-10-13T01:50:31.182Z,256.37
2023-10-13T01:53:18.474Z,204.80
2023-10-13T01:55:51.224Z,188.70
2023-10-13T01:58:24.130Z,254.70
2023-10-13T02:00:57.761Z,285.33
2023-10-13T02:03:31.258Z,302.10
2023-10-13T02:06:05.450Z,288.20
2023-10-13T02:08:44.222Z,243.50
2023-10-13T02:11:19.831Z,6.87
2023-10-13T02:13:54.710Z,4.87
2023-10-13T02:16:26.778Z,4.33
2023-10-13T02:19:05.030Z,5.13
2023-10-13T02:21:40.556Z,189.63
2023-10-13T02:24:31.490Z,221.10
2023-10-13T02:27:10.270Z,263.73
2023-10-13T02:29:42.832Z,101.53
2023-10-13T02:32:19.822Z,235.67
2023-10-13T02:34:51.488Z,266.75
2023-10-13T02:37:23.213Z,266.47
2023-10-13T02:39:58.892Z,240.90
2023-10-13T02:42:30.591Z,230.53
2023-10-13T02:45:04.576Z,263.33
2023-10-13T02:47:36.347Z,263.40
2023-10-13T02:50:13.909Z,237.40
2023-10-13T02:52:49.093Z,261.20
2023-10-13T02:55:26.809Z,200.20
2023-10-13T02:57:58.489Z,265.37
2023-10-13T03:00:33.054Z,269.53
2023-10-13T03:03:07.287Z,259.63
2023-10-13T03:05:40.340Z,248.77
2023-10-13T03:08:12.130Z,275.13
2023-10-13T03:10:48.486Z,295.53
2023-10-13T03:13:20.235Z,298.30
2023-10-13T03:15:52.109Z,243.20
2023-10-13T03:18:23.799Z,220.97
2023-10-13T03:21:00.404Z,207.73
2023-10-13T03:23:46.635Z,219.63
2023-10-13T03:26:21.480Z,239.90
2023-10-13T03:28:53.486Z,210.70
2023-10-13T03:31:29.400Z,258.33
2023-10-13T03:34:01.461Z,237.67
2023-10-13T03:36:51.533Z,260.43
2023-10-13T03:39:30.194Z,269.27
2023-10-13T03:42:06.154Z,270.97
2023-10-13T03:44:39.629Z,265.77
2023-10-13T03:47:19.436Z,267.77
2023-10-13T03:49:52.583Z,259.63
2023-10-13T03:52:26.566Z,213.50
2023-10-13T03:54:59.827Z,231.50
2023-10-13T03:57:34.804Z,211.13
2023-10-13T04:00:10.513Z,237.23
2023-10-13T04:02:47.954Z,251.10
2023-10-13T04:05:39.728Z,243.80
2023-10-13T04:08:43.769Z,243.00
2023-10-13T04:11:34.201Z,229.27
2023-10-13T04:14:25.012Z,139.63
2023-10-13T04:16:56.807Z,318.10
2023-10-13T04:19:30.507Z,310.83
2023-10-13T04:22:15.506Z,252.73
2023-10-13T04:25:02.101Z,287.00
2023-10-13T04:27:41.083Z,279.80
2023-10-13T04:30:20.632Z,288.70
2023-10-13T04:33:12.275Z,303.80
2023-10-13T04:35:49.171Z,340.67
2023-10-13T04:38:21.577Z,297.10
2023-10-13T04:41:11.159Z,303.53
2023-10-13T04:43:58.137Z,323.73
2023-10-13T04:46:47.982Z,263.50
2023-10-13T04:49:35.551Z,364.37
2023-10-13T04:52:10.325Z,320.57
2023-10-13T04:54:50.761Z,279.90
2023-10-13T04:57:27.178Z,305.80
2023-10-13T05:00:11.961Z,346.30
2023-10-13T05:03:00.986Z,336.70
2023-10-13T05:05:51.225Z,318.77
2023-10-13T05:08:44.456Z,343.90
2023-10-13T05:11:35.060Z,319.50
2023-10-13T05:14:25.511Z,340.40
2023-10-13T05:17:29.785Z,325.73
2023-10-13T05:20:20.364Z,246.55
2023-10-13T05:23:10.860Z,359.03
2023-10-13T05:26:01.409Z,369.40
2023-10-13T05:28:51.823Z,347.23
2023-10-13T05:31:42.662Z,326.30
2023-10-13T05:34:33.030Z,6.23
2023-10-13T05:37:23.424Z,7.40
2023-10-13T05:40:13.748Z,5.77
2023-10-13T05:43:04.206Z,6.80
2023-10-13T05:45:55.338Z,6.50
2023-10-13T05:48:44.048Z,181.87
2023-10-13T05:51:44.592Z,164.80
2023-10-13T05:54:16.348Z,186.40
2023-10-13T05:57:10.940Z,208.27
2023-10-13T06:00:01.429Z,180.20
2023-10-13T06:02:51.928Z,248.37
2023-10-13T06:05:42.442Z,217.50
2023-10-13T06:08:32.884Z,273.57
2023-10-13T06:11:24.812Z,307.87
2023-10-13T06:14:15.250Z,280.23
2023-10-13T06:17:05.838Z,316.87
2023-10-13T06:19:56.170Z,336.17
2023-10-13T06:22:46.809Z,321.30
2023-10-13T06:25:50.998Z,358.80
2023-10-13T06:28:41.431Z,408.90
2023-10-13T06:31:22.711Z,400.90
2023-10-13T06:33:56.792Z,422.20
2023-10-13T06:36:28.868Z,407.13
2023-10-13T06:39:19.099Z,462.53
2023-10-13T06:41:52.536Z,479.57
2023-10-13T06:44:25.599Z,466.63
2023-10-13T06:46:57.367Z,456.13
2023-10-13T06:49:30.276Z,454.50
2023-10-13T06:52:02.037Z,387.63
2023-10-13T06:54:36.760Z,384.07
2023-10-13T06:57:11.770Z,427.17
2023-10-13T06:59:43.577Z,171.70
2023-10-13T07:02:28.135Z,7.80
2023-10-13T07:05:12.730Z,6.60
2023-10-13T07:07:45.305Z,5.93
2023-10-13T07:10:17.720Z,275.27
2023-10-13T07:12:51.004Z,302.23
2023-10-13T07:15:28.320Z,308.70
2023-10-13T07:18:00.685Z,328.63
2023-10-13T07:20:33.614Z,295.07
2023-10-13T07:23:06.908Z,339.80
2023-10-13T07:25:41.251Z,327.87
2023-10-13T07:28:13.037Z,316.30
2023-10-13T07:31:11.085Z,8.25
2023-10-13T07:33:43.036Z,18.20
2023-10-13T07:36:19.326Z,7.60
2023-10-13T07:39:19.391Z,9.40
2023-10-13T07:42:04.919Z,13.77
2023-10-13T07:44:37.746Z,13.30
2023-10-13T07:47:12.149Z,18.37
2023-10-13T07:49:44.799Z,7.33
2023-10-13T07:52:24.674Z,7.23
2023-10-13T07:55:04.165Z,5.80
2023-10-13T07:57:36.193Z,5.53
2023-10-13T08:00:27.881Z,5.10
2023-10-13T08:03:11.096Z,5.10
2023-10-13T08:06:05.964Z,10.57
2023-10-13T08:08:41.684Z,5.57
2023-10-13T08:11:24.895Z,10.13
2023-10-13T08:14:12.738Z,463.23
2023-10-13T08:16:53.996Z,465.10
2023-10-13T08:19:40.965Z,483.47
2023-10-13T08:22:19.710Z,533.27
2023-10-13T08:24:53.139Z,527.63
2023-10-13T08:27:36.014Z,500.30
2023-10-13T08:30:44.345Z,523.23
2023-10-13T08:33:19.105Z,522.67
2023-10-13T08:36:16.718Z,530.03
2023-10-13T08:38:56.337Z,526.00
2023-10-13T08:41:30.650Z,555.13
2023-10-13T08:44:04.827Z,557.33
2023-10-13T08:47:01.004Z,633.40
2023-10-13T08:49:41.105Z,672.47
2023-10-13T08:52:35.316Z,698.60
2023-10-13T08:55:25.972Z,746.83
2023-10-13T08:58:04.163Z,775.03
2023-10-13T09:00:54.479Z,785.63
2023-10-13T09:03:41.005Z,786.50
2023-10-13T09:06:16.205Z,779.47
2023-10-13T09:09:20.677Z,822.03
2023-10-13T09:11:54.800Z,814.17
2023-10-13T09:14:36.927Z,331.97
2023-10-13T09:17:09.890Z,158.20
2023-10-13T09:19:57.475Z,195.60
2023-10-13T09:22:36.733Z,216.37
2023-10-13T09:25:14.573Z,288.83
2023-10-13T09:27:54.566Z,740.03
2023-10-13T09:30:29.709Z,782.40
2023-10-13T09:33:05.991Z,808.17
2023-10-13T09:35:40.634Z,819.07
2023-10-13T09:38:12.886Z,867.77
2023-10-13T09:40:51.817Z,794.83
2023-10-13T09:43:23.787Z,514.10
2023-10-13T09:46:08.736Z,609.53
2023-10-13T09:48:44.966Z,599.60
2023-10-13T09:51:25.870Z,618.77
2023-10-13T09:54:30.548Z,657.38
2023-10-13T09:57:11.138Z,521.22
2023-10-13T09:59:54.157Z,453.42
2023-10-13T10:02:28.916Z,390.52
2023-10-13T10:05:22.530Z,501.08
2023-10-13T10:08:00.393Z,163.23
2023-10-13T10:10:54.448Z,173.93
2023-10-13T10:13:42.625Z,36.85
2023-10-13T10:16:20.956Z,414.20
2023-10-13T10:19:02.918Z,591.65
2023-10-13T10:21:38.539Z,568.80
2023-10-13T10:24:31.346Z,549.25
2023-10-13T10:27:05.479Z,609.42
2023-10-13T10:29:37.171Z,591.45
2023-10-13T10:32:15.410Z,384.00
2023-10-13T10:34:47.995Z,5.07
2023-10-13T10:37:20.227Z,5.93
2023-10-13T10:39:58.086Z,4.50
2023-10-13T10:42:30.444Z,3.70
2023-10-13T10:45:10.312Z,3.85
2023-10-13T10:47:49.543Z,4.32
2023-10-13T10:50:35.835Z,3.90
2023-10-13T10:53:09.938Z,4.13
2023-10-13T10:55:42.462Z,3.40
2023-10-13T10:58:29.822Z,33.60
2023-10-13T11:01:20.271Z,62.57
2023-10-13T11:03:58.536Z,180.87
2023-10-13T11:06:39.211Z,15.03
2023-10-13T11:09:22.412Z,478.17
2023-10-13T11:11:55.256Z,4.43
2023-10-13T11:14:30.774Z,328.83
2023-10-13T11:17:06.039Z,569.17
2023-10-13T11:19:39.433Z,4.87
2023-10-13T11:22:43.013Z,3.70
2023-10-13T11:25:31.420Z,3.73
2023-10-13T11:28:29.848Z,3.40
2023-10-13T11:31:05.894Z,4.00
2023-10-13T11:33:47.551Z,4.10
2023-10-13T11:36:22.846Z,4.03
2023-10-13T11:38:58.912Z,3.88
2023-10-13T11:41:35.518Z,3.77
2023-10-13T11:44:07.260Z,3.20
2023-10-13T11:46:39.575Z,4.00
2023-10-13T11:49:33.517Z,4.03
2023-10-13T11:52:17.453Z,3.93
2023-10-13T11:54:49.493Z,3.30
2023-10-13T11:57:22.454Z,3.63
2023-10-13T11:59:54.373Z,3.47
2023-10-13T12:02:26.214Z,4.20
2023-10-13T12:05:00.930Z,3.57
2023-10-13T12:07:49.690Z,4.67
2023-10-13T12:10:50.674Z,3.80
2023-10-13T12:13:22.455Z,4.00
2023-10-13T12:15:57.830Z,4.73
2023-10-13T12:18:29.726Z,3.40
2023-10-13T12:21:09.550Z,4.37
2023-10-13T12:23:46.135Z,4.70
2023-10-13T12:26:20.643Z,3.90
2023-10-13T12:29:06.765Z,3.40
2023-10-13T12:31:40.475Z,4.60
2023-10-13T12:34:20.553Z,4.87
2023-10-13T12:37:07.038Z,4.33
2023-10-13T12:39:57.859Z,4.03
2023-10-13T12:42:48.289Z,4.23
2023-10-13T12:45:38.802Z,5.43
2023-10-13T12:48:29.374Z,4.30
2023-10-13T12:51:22.287Z,4.30
2023-10-13T12:53:54.941Z,3.70
2023-10-13T12:56:29.845Z,4.00
2023-10-13T12:59:01.545Z,4.77
2023-10-13T13:01:36.271Z,4.67
2023-10-13T13:04:12.827Z,5.10
2023-10-13T13:06:44.495Z,4.70
2023-10-13T13:09:16.657Z,4.37
2023-10-13T13:11:50.129Z,4.00
2023-10-13T13:14:21.955Z,4.47
2023-10-13T13:16:53.855Z,4.60
2023-10-13T13:19:27.170Z,3.80
2023-10-13T13:21:58.964Z,4.07
2023-10-13T13:24:31.096Z,3.77
2023-10-13T13:27:06.357Z,5.77
2023-10-13T13:29:38.855Z,4.37
2023-10-13T13:32:26.177Z,12.20
2023-10-13T13:35:24.417Z,5.90
2023-10-13T13:38:06.150Z,4.10
2023-10-13T13:40:39.211Z,4.67
2023-10-13T13:43:19.516Z,4.53
2023-10-13T13:45:51.263Z,5.13
2023-10-13T13:48:22.963Z,8.13
2023-10-13T13:51:00.929Z,23.23
2023-10-13T13:53:35.900Z,151.83
2023-10-13T13:56:08.014Z,167.60
2023-10-13T13:58:39.721Z,250.90
2023-10-13T14:01:19.690Z,189.23
2023-10-13T14:03:52.017Z,237.83
2023-10-13T14:06:26.250Z,311.37
2023-10-13T14:09:15.483Z,37.03
2023-10-13T14:11:56.094Z,60.80
2023-10-13T14:14:27.868Z,989.73
2023-10-13T14:17:09.035Z,924.47
2023-10-13T14:19:45.083Z,649.40
2023-10-13T14:22:16.878Z,133.13
2023-10-13T14:24:52.718Z,111.13
2023-10-13T14:27:24.648Z,182.97
2023-10-13T14:29:57.382Z,199.27
2023-10-13T14:32:29.671Z,294.23
2023-10-13T14:35:01.691Z,157.93
2023-10-13T14:37:33.557Z,150.10
2023-10-13T14:40:05.768Z,94.90
2023-10-13T14:42:37.422Z,58.13
2023-10-13T14:45:17.549Z,160.73
2023-10-13T14:47:49.230Z,188.13
2023-10-13T14:50:21.473Z,173.93
2023-10-13T14:52:53.421Z,128.10
2023-10-13T14:55:39.231Z,156.67
2023-10-13T14:58:13.775Z,173.23
2023-10-13T15:00:46.472Z,3.53
2023-10-13T15:03:19.613Z,8.33
2023-10-13T15:05:51.396Z,55.07
2023-10-13T15:08:23.159Z,104.43
2023-10-13T15:10:54.925Z,67.17
2023-10-13T15:13:26.751Z,114.57
2023-10-13T15:15:58.967Z,122.07
2023-10-13T15:18:30.779Z,110.90
2023-10-13T15:21:02.433Z,112.17
2023-10-13T15:23:34.531Z,151.57
2023-10-13T15:26:10.713Z,107.87
2023-10-13T15:28:54.705Z,58.33
2023-10-13T15:31:35.558Z,80.70
2023-10-13T15:34:16.472Z,107.20
2023-10-13T15:36:48.385Z,64.70
2023-10-13T15:39:24.890Z,43.60
2023-10-13T15:42:00.460Z,36.50
2023-10-13T15:44:35.904Z,51.83
2023-10-13T15:49:43.344Z,6.50
2023-10-13T15:52:17.071Z,12.57
2023-10-13T15:54:48.988Z,10.10
2023-10-13T15:57:20.786Z,7.00
2023-10-13T15:59:52.660Z,8.20
2023-10-13T16:02:25.145Z,9.43
2023-10-13T16:05:00.812Z,38.63
2023-10-13T16:07:35.255Z,35.83
2023-10-13T16:10:12.579Z,72.37
2023-10-13T16:12:46.009Z,73.03
2023-10-13T16:15:19.484Z,103.10
2023-10-13T16:17:54.611Z,155.33
2023-10-13T16:20:26.455Z,183.17
2023-10-13T16:22:58.340Z,357.43
2023-10-13T16:25:30.051Z,411.60
2023-10-13T16:28:01.798Z,291.13
2023-10-13T16:30:33.587Z,365.07
2023-10-13T16:33:06.194Z,324.00
2023-10-13T16:35:37.881Z,309.33
2023-10-13T16:38:11.840Z,303.00
2023-10-13T16:40:43.632Z,262.03
2023-10-13T16:43:15.358Z,171.67
2023-10-13T16:45:47.265Z,266.17
2023-10-13T16:48:19.794Z,331.37
2023-10-13T16:50:51.547Z,266.30
2023-10-13T16:53:23.545Z,297.80
2023-10-13T16:55:58.887Z,252.80
2023-10-13T16:58:34.948Z,312.60
2023-10-13T17:01:14.040Z,392.57
2023-10-13T17:03:46.271Z,395.70
2023-10-13T17:06:18.853Z,420.87
2023-10-13T17:08:52.105Z,360.97
2023-10-13T17:11:25.574Z,357.30
2023-10-13T17:13:57.653Z,132.57
2023-10-13T17:16:32.970Z,292.07
2023-10-13T17:19:05.430Z,296.10
2023-10-13T17:21:37.199Z,336.07
2023-10-13T17:24:09.170Z,349.33
2023-10-13T17:26:40.896Z,413.30
2023-10-13T17:29:12.624Z,847.77
2023-10-13T17:31:44.467Z,817.03
2023-10-13T17:34:18.169Z,799.17
2023-10-13T17:36:50.300Z,774.30
2023-10-13T17:39:22.187Z,794.20
2023-10-13T17:41:54.803Z,425.80
2023-10-13T17:44:27.117Z,363.33
2023-10-13T17:46:58.880Z,304.47
2023-10-13T17:49:30.564Z,357.03
2023-10-13T17:52:05.593Z,190.13
2023-10-13T17:54:37.541Z,218.73
2023-10-13T17:57:09.278Z,195.07
2023-10-13T17:59:40.923Z,284.53
2023-10-13T18:02:18.055Z,285.40
2023-10-13T18:04:49.912Z,234.02
2023-10-13T18:07:22.549Z,444.07
2023-10-13T18:09:56.929Z,523.47
2023-10-13T18:12:28.691Z,577.10
2023-10-13T18:15:00.490Z,562.67
2023-10-13T18:17:33.531Z,534.70
2023-10-13T18:20:11.225Z,345.45
2023-10-13T18:22:43.280Z,456.07
2023-10-13T18:25:15.285Z,374.77
2023-10-13T18:27:48.262Z,461.83
2023-10-13T18:30:23.045Z,515.13
2023-10-13T18:32:55.865Z,512.03
2023-10-13T18:35:27.851Z,527.13
2023-10-13T18:38:05.399Z,548.70
2023-10-13T18:40:37.697Z,519.87
2023-10-13T18:43:10.201Z,522.87
2023-10-13T18:45:42.107Z,500.40
2023-10-13T18:48:15.429Z,529.50
2023-10-13T18:50:47.127Z,553.13
2023-10-13T18:53:18.974Z,407.30
2023-10-13T18:55:50.781Z,499.40
2023-10-13T18:58:22.433Z,551.40
2023-10-13T19:00:54.226Z,562.67
2023-10-13T19:03:28.254Z,527.27
2023-10-13T19:06:00.008Z,484.67
2023-10-13T19:08:34.324Z,550.83
2023-10-13T19:11:09.514Z,361.25
2023-10-13T19:13:44.701Z,542.07
2023-10-13T19:16:17.808Z,533.47
2023-10-13T19:18:49.730Z,540.60
2023-10-13T19:21:22.397Z,460.37
2023-10-13T19:23:54.828Z,463.17
2023-10-13T19:26:28.589Z,506.63
2023-10-13T19:29:01.649Z,518.10
2023-10-13T19:31:35.133Z,444.47
2023-10-13T19:34:07.514Z,556.63
2023-10-13T19:36:39.321Z,493.03
2023-10-13T19:39:19.936Z,317.73
2023-10-13T19:41:51.589Z,457.60
2023-10-13T19:44:26.389Z,405.50
2023-10-13T19:46:58.122Z,519.10
2023-10-13T19:49:29.864Z,594.53
2023-10-13T19:52:01.599Z,558.13
2023-10-13T19:54:33.534Z,520.27
2023-10-13T19:57:06.168Z,502.83
2023-10-13T19:59:38.271Z,564.13
2023-10-13T20:02:10.231Z,605.67
2023-10-13T20:04:41.930Z,633.73
2023-10-13T20:07:13.790Z,640.60
2023-10-13T20:09:45.527Z,650.50
2023-10-13T20:12:17.266Z,674.57
2023-10-13T20:14:49.014Z,659.47
2023-10-13T20:17:20.937Z,504.00
2023-10-13T20:19:52.696Z,697.27
2023-10-13T20:22:24.387Z,642.90
2023-10-13T20:24:56.180Z,681.73
2023-10-13T20:27:28.664Z,639.97
2023-10-13T20:30:09.458Z,671.03
2023-10-13T20:32:41.189Z,651.53
2023-10-13T20:35:13.316Z,663.07
2023-10-13T20:37:45.023Z,731.77
2023-10-13T20:40:19.685Z,718.27
2023-10-13T20:42:52.271Z,671.63
2023-10-13T20:45:24.411Z,639.23
2023-10-13T20:47:56.372Z,659.00
2023-10-13T20:50:28.009Z,499.42
2023-10-13T20:53:03.298Z,660.07
2023-10-13T20:55:38.705Z,640.73
2023-10-13T20:58:10.617Z,679.83
2023-10-13T21:00:44.899Z,659.03
2023-10-13T21:03:18.111Z,555.40
2023-10-13T21:05:50.384Z,559.63
2023-10-13T21:08:23.013Z,588.03
2023-10-13T21:10:54.745Z,544.00
2023-10-13T21:13:27.984Z,563.43
2023-10-13T21:16:00.884Z,581.40
2023-10-13T21:18:32.678Z,628.53
2023-10-13T21:21:16.964Z,692.87
2023-10-13T21:23:50.111Z,532.42
2023-10-13T21:26:31.335Z,645.97
2023-10-13T21:29:08.949Z,557.77
2023-10-13T21:31:41.262Z,657.97
2023-10-13T21:34:13.774Z,661.07
2023-10-13T21:36:45.817Z,747.27
2023-10-13T21:39:17.506Z,753.73
2023-10-13T21:41:49.211Z,744.93
2023-10-13T21:44:20.871Z,721.57
2023-10-13T21:46:52.722Z,750.93
2023-10-13T21:49:24.434Z,748.63
2023-10-13T21:51:56.186Z,735.90
2023-10-13T21:54:27.941Z,728.00
2023-10-13T21:56:59.646Z,715.93
2023-10-13T21:59:31.624Z,727.07
2023-10-13T22:02:03.500Z,732.47
2023-10-13T22:04:35.304Z,737.60
2023-10-13T22:07:07.247Z,731.53
2023-10-13T22:09:39.534Z,727.93
2023-10-13T22:12:11.280Z,736.33
2023-10-13T22:14:43.122Z,739.77
2023-10-13T22:17:16.720Z,736.03
2023-10-13T22:19:51.801Z,727.03
2023-10-13T22:22:23.531Z,726.60
2023-10-13T22:24:56.060Z,718.43
2023-10-13T22:27:28.209Z,719.33
2023-10-13T22:29:59.903Z,738.50
2023-10-13T22:32:31.675Z,707.37
2023-10-13T22:35:03.696Z,723.17
2023-10-13T22:37:35.960Z,728.47
2023-10-13T22:40:10.614Z,725.77
2023-10-13T22:42:44.445Z,739.43
2023-10-13T22:45:20.771Z,739.93
2023-10-13T22:47:57.884Z,769.77
2023-10-13T22:50:31.788Z,758.07
2023-10-13T22:53:06.705Z,774.17
2023-10-13T22:55:44.902Z,791.87
2023-10-13T22:58:16.767Z,812.53
2023-10-13T23:00:55.802Z,794.40
2023-10-13T23:03:42.997Z,675.30
2023-10-13T23:06:22.160Z,636.60
2023-10-13T23:08:55.352Z,620.60
2023-10-13T23:11:39.559Z,595.27
2023-10-13T23:14:13.735Z,611.93
2023-10-13T23:16:47.301Z,615.30
2023-10-13T23:19:28.902Z,613.00
2023-10-13T23:22:00.686Z,645.57
2023-10-13T23:24:32.894Z,539.40
2023-10-13T23:27:06.249Z,592.90
2023-10-13T23:29:38.023Z,634.57
2023-10-13T23:32:09.843Z,645.87
2023-10-13T23:34:41.568Z,506.87
2023-10-13T23:37:15.825Z,292.45
2023-10-13T23:39:47.783Z,613.37
2023-10-13T23:42:24.911Z,628.03
2023-10-13T23:45:07.625Z,610.73
2023-10-13T23:47:48.030Z,650.47
2023-10-13T23:50:28.753Z,508.03
2023-10-13T23:53:00.652Z,595.40
2023-10-13T23:55:35.754Z,722.30
2023-10-13T23:58:07.649Z,633.37
